Terminal Aerodrome Forecast
Issued by NWS Paducah, KY

Home | Current Version | Previous Version | Text Only | Print | Product List | Glossary On
Versions: 1 2 3 4 5 6 7 8 9 10 11 12 13
000
FTUS43 KPAH 252115 AAA
TAFEVV
TAF AMD
KEVV 252115Z 2521/2618 26010G20KT P6SM VCTS BKN035CB
      TEMPO 2522/2524 VRB20G40KT 1SM +TSRA BR OVC008CB
     FM260600 36010KT P6SM OVC007=

USA.gov is the U.S. government's official web portal to all federal, state and local government web resources and services.